Time;durP1;ratioP1;P1;durP2;ratioP2;P2;SDS_P1;SDS_P2;PMS_P1;PMS_P2;Temp;Humidity;BMP_temperature;BMP_pressure;BME280_temperature;BME280_humidity;BME280_pressure;Samples;Min_cycle;Max_cycle;Signal;HPM_P1;HPM_P2
2022/06/18 00:00:15;;;;;;;;;;;;;;;;;;5097229;28;20010;-42
2022/06/18 00:02:41;;;;;;;;;;;;;;;;;;5097303;28;19915;-42
2022/06/18 00:05:06;;;;;;;;;;;;;;;;;;5097033;28;20385;-42
2022/06/18 00:07:32;;;;;;;;;;;;;;;;;;5097083;28;19908;-42
2022/06/18 00:09:57;;;;;;;;;;;;;;;;;;5096696;28;19919;-42
2022/06/18 00:15:05;;;;;;;;;;;;;;;;;;5097147;28;19935;-42
2022/06/18 00:17:31;;;;;;;;;;;;;;;;;;5096062;28;19908;-41
2022/06/18 00:19:56;;;;;;;;;;;;;;;;;;5096544;28;19990;-42
2022/06/18 00:22:21;;;;;;;;;;;;;;;;;;5096520;28;20314;-42
2022/06/18 00:24:46;;;;;;;;;;;;;;;;;;5096825;28;19908;-42
2022/06/18 00:27:11;;;;;;;;;;;;;;;;;;5096613;28;19912;-42
2022/06/18 00:29:36;;;;;;;;;;;;;;;;;;5096577;28;19962;-43
2022/06/18 00:32:01;;;;;;;;;;;;;;;;;;5096722;28;19930;-42
2022/06/18 00:34:27;;;;;;;;;;;;;;;;;;5096072;28;19931;-42
2022/06/18 00:36:52;;;;;;;;;;;;;;;;;;5096560;28;19916;-42
2022/06/18 00:39:17;;;;;;;;;;;;;;;;;;5096694;28;19915;-42
2022/06/18 00:41:42;;;;;;;;;;;;;;;;;;5096410;28;19915;-43
2022/06/18 00:44:07;;;;;;;;;;;;;;;;;;5096395;28;19908;-41
2022/06/18 00:46:32;;;;;;;;;;;;;;;;;;5096395;28;19961;-42
2022/06/18 00:48:57;;;;;;;;;;;;;;;;;;5096185;28;20519;-42
2022/06/18 00:51:22;;;;;;;;;;;;;;;;;;5095940;28;20321;-42
2022/06/18 00:53:48;;;;;;;;;;;;;;;;;;5095940;28;19931;-41
2022/06/18 00:56:13;;;;;;;;;;;;;;;;;;5095949;28;20321;-42
2022/06/18 00:58:38;;;;;;;;;;;;;;;;;;5095828;28;19912;-42
2022/06/18 01:01:03;;;;;;;;;;;;;;;;;;5095954;28;20358;-42
2022/06/18 01:03:28;;;;;;;;;;;;;;;;;;5096071;28;19967;-43
2022/06/18 01:05:53;;;;;;;;;;;;;;;;;;5095795;28;19916;-42
2022/06/18 01:08:18;;;;;;;;;;;;;;;;;;5095637;28;19908;-42
2022/06/18 01:10:44;;;;;;;;;;;;;;;;;;5095587;28;19962;-43
2022/06/18 01:13:09;;;;;;;;;;;;;;;;;;5095506;28;19919;-41
2022/06/18 01:15:34;;;;;;;;;;;;;;;;;;5095767;28;19927;-41
2022/06/18 01:18:00;;;;;;;;;;;;;;;;;;5095375;28;20401;-41
2022/06/18 01:20:25;;;;;;;;;;;;;;;;;;5094430;28;19908;-42
2022/06/18 01:22:52;;;;;;;;;;;;;;;;;;5095525;28;20375;-42
2022/06/18 01:25:17;;;;;;;;;;;;;;;;;;5095408;28;19922;-42
2022/06/18 01:27:42;;;;;;;;;;;;;;;;;;5095385;28;20002;-43
2022/06/18 01:30:07;;;;;;;;;;;;;;;;;;5095181;28;19990;-42
2022/06/18 01:32:32;;;;;;;;;;;;;;;;;;5095180;28;20343;-42
2022/06/18 01:34:57;;;;;;;;;;;;;;;;;;5095361;28;20294;-42
2022/06/18 01:37:22;;;;;;;;;;;;;;;;;;5095181;28;19909;-41
2022/06/18 01:39:47;;;;;;;;;;;;;;;;;;5095243;28;19915;-42
2022/06/18 01:42:12;;;;;;;;;;;;;;;;;;5095169;28;19911;-41
2022/06/18 01:44:38;;;;;;;;;;;;;;;;;;5095126;28;19912;-42
2022/06/18 01:47:03;;;;;;;;;;;;;;;;;;5095012;28;19962;-42
2022/06/18 01:49:28;;;;;;;;;;;;;;;;;;5095532;28;19958;-43
2022/06/18 01:51:53;;;;;;;;;;;;;;;;;;5095211;28;19912;-42
2022/06/18 01:54:18;;;;;;;;;;;;;;;;;;5094722;28;19974;-43
2022/06/18 01:56:44;;;;;;;;;;;;;;;;;;5094802;28;19912;-42
2022/06/18 01:59:09;;;;;;;;;;;;;;;;;;5093589;28;20381;-42
2022/06/18 02:01:34;;;;;;;;;;;;;;;;;;5095027;28;20324;-42
2022/06/18 02:03:59;;;;;;;;;;;;;;;;;;5094964;28;19914;-41
2022/06/18 02:06:24;;;;;;;;;;;;;;;;;;5093994;28;19919;-42
2022/06/18 02:08:49;;;;;;;;;;;;;;;;;;5094315;28;19915;-41
2022/06/18 02:11:14;;;;;;;;;;;;;;;;;;5094934;28;19914;-42
2022/06/18 02:13:39;;;;;;;;;;;;;;;;;;5094642;28;19951;-42
2022/06/18 02:16:04;;;;;;;;;;;;;;;;;;5094666;28;19962;-42
2022/06/18 02:18:30;;;;;;;;;;;;;;;;;;5094691;28;20317;-41
2022/06/18 02:20:55;;;;;;;;;;;;;;;;;;5094896;28;19948;-41
2022/06/18 02:23:20;;;;;;;;;;;;;;;;;;5094953;28;19912;-42
2022/06/18 02:25:45;;;;;;;;;;;;;;;;;;5094775;28;19908;-42
2022/06/18 02:28:11;;;;;;;;;;;;;;;;;;5094756;28;19912;-41
2022/06/18 02:30:37;;;;;;;;;;;;;;;;;;5094615;28;19954;-43
2022/06/18 02:33:02;;;;;;;;;;;;;;;;;;5094424;28;19920;-42
2022/06/18 02:35:27;;;;;;;;;;;;;;;;;;5094707;28;19997;-42
2022/06/18 02:37:54;;;;;;;;;;;;;;;;;;5094529;28;19915;-42
2022/06/18 02:40:19;;;;;;;;;;;;;;;;;;5095500;28;19908;-41
2022/06/18 02:42:44;;;;;;;;;;;;;;;;;;5098546;28;19915;-43
2022/06/18 02:45:09;;;;;;;;;;;;;;;;;;5098540;28;19951;-42
2022/06/18 02:47:35;;;;;;;;;;;;;;;;;;5098399;28;19961;-42
2022/06/18 02:50:00;;;;;;;;;;;;;;;;;;5098137;28;19954;-42
2022/06/18 02:52:25;;;;;;;;;;;;;;;;;;5098206;28;19962;-41
2022/06/18 02:54:50;;;;;;;;;;;;;;;;;;5098426;28;19912;-42
2022/06/18 02:57:15;;;;;;;;;;;;;;;;;;5098695;28;19908;-42
2022/06/18 02:59:41;;;;;;;;;;;;;;;;;;5098282;28;19908;-42
2022/06/18 03:02:06;;;;;;;;;;;;;;;;;;5098035;28;19908;-43
2022/06/18 03:04:31;;;;;;;;;;;;;;;;;;5098153;28;19908;-42
2022/06/18 03:06:56;;;;;;;;;;;;;;;;;;5098190;28;19908;-42
2022/06/18 03:09:21;;;;;;;;;;;;;;;;;;5098175;28;19978;-42
2022/06/18 03:14:30;;;;;;;;;;;;;;;;;;5097811;28;19942;-41
2022/06/18 03:16:55;;;;;;;;;;;;;;;;;;5097785;28;20374;-41
2022/06/18 03:19:23;;;;;;;;;;;;;;;;;;5097768;28;19962;-41
2022/06/18 03:21:48;;;;;;;;;;;;;;;;;;5097785;28;20003;-43
2022/06/18 03:24:13;;;;;;;;;;;;;;;;;;5097779;28;19956;-41
2022/06/18 03:26:39;;;;;;;;;;;;;;;;;;5097913;28;19908;-41
2022/06/18 03:29:05;;;;;;;;;;;;;;;;;;5097719;28;19908;-43
2022/06/18 03:31:30;;;;;;;;;;;;;;;;;;5097693;28;19908;-42
2022/06/18 03:33:55;;;;;;;;;;;;;;;;;;5097405;28;20375;-42
2022/06/18 03:36:20;;;;;;;;;;;;;;;;;;5096301;28;19908;-42
2022/06/18 03:38:45;;;;;;;;;;;;;;;;;;5097669;28;19912;-42
2022/06/18 03:41:10;;;;;;;;;;;;;;;;;;5097515;28;19909;-42
2022/06/18 03:43:36;;;;;;;;;;;;;;;;;;5097379;28;19915;-42
2022/06/18 03:46:01;;;;;;;;;;;;;;;;;;5097238;28;19915;-42
2022/06/18 03:48:26;;;;;;;;;;;;;;;;;;5097321;28;20317;-42
2022/06/18 03:50:51;;;;;;;;;;;;;;;;;;5082099;28;19909;-41
2022/06/18 03:53:16;;;;;;;;;;;;;;;;;;5076026;28;19966;-42
2022/06/18 03:55:41;;;;;;;;;;;;;;;;;;5077102;28;19919;-41
2022/06/18 03:58:06;;;;;;;;;;;;;;;;;;5077113;28;19943;-42
2022/06/18 04:00:32;;;;;;;;;;;;;;;;;;5077082;28;19987;-41
2022/06/18 04:02:57;;;;;;;;;;;;;;;;;;5076900;28;19916;-42
2022/06/18 04:05:22;;;;;;;;;;;;;;;;;;5076884;28;19987;-41
2022/06/18 04:07:47;;;;;;;;;;;;;;;;;;5076894;28;19908;-41
2022/06/18 04:10:12;;;;;;;;;;;;;;;;;;5076783;28;19909;-41
2022/06/18 04:12:37;;;;;;;;;;;;;;;;;;5076723;28;19912;-41
2022/06/18 04:15:02;;;;;;;;;;;;;;;;;;5076718;28;20255;-41
2022/06/18 04:17:27;;;;;;;;;;;;;;;;;;5076470;28;20429;-42
2022/06/18 04:19:53;;;;;;;;;;;;;;;;;;5076715;28;19915;-41
2022/06/18 04:22:18;;;;;;;;;;;;;;;;;;5076761;28;20063;-42
2022/06/18 04:24:43;;;;;;;;;;;;;;;;;;5076525;28;19908;-41
2022/06/18 04:27:08;;;;;;;;;;;;;;;;;;5076470;28;19912;-42
2022/06/18 04:29:33;;;;;;;;;;;;;;;;;;5076421;28;20355;-42
2022/06/18 04:31:59;;;;;;;;;;;;;;;;;;5076677;28;20363;-42
2022/06/18 04:34:24;;;;;;;;;;;;;;;;;;5076212;28;19920;-42
2022/06/18 04:36:49;;;;;;;;;;;;;;;;;;5076768;28;19908;-42
2022/06/18 04:39:14;;;;;;;;;;;;;;;;;;5076352;28;19915;-42
2022/06/18 04:41:40;;;;;;;;;;;;;;;;;;5076101;28;19916;-42
2022/06/18 04:44:05;;;;;;;;;;;;;;;;;;5076210;28;20256;-42
2022/06/18 04:46:30;;;;;;;;;;;;;;;;;;5076051;28;19931;-41
2022/06/18 04:48:55;;;;;;;;;;;;;;;;;;5076086;28;19908;-41
2022/06/18 04:51:20;;;;;;;;;;;;;;;;;;5076305;28;19975;-41
2022/06/18 04:53:45;;;;;;;;;;;;;;;;;;5075885;28;19995;-42
2022/06/18 04:56:10;;;;;;;;;;;;;;;;;;5075867;28;19909;-42
2022/06/18 04:58:35;;;;;;;;;;;;;;;;;;5075860;28;19909;-42
2022/06/18 05:01:01;;;;;;;;;;;;;;;;;;5075729;28;19915;-42
2022/06/18 05:03:26;;;;;;;;;;;;;;;;;;5075548;28;19995;-42
2022/06/18 05:05:51;;;;;;;;;;;;;;;;;;5075551;28;19915;-42
2022/06/18 05:08:16;;;;;;;;;;;;;;;;;;5075593;28;19995;-41
2022/06/18 05:10:41;;;;;;;;;;;;;;;;;;5075665;28;20372;-43
2022/06/18 05:13:06;;;;;;;;;;;;;;;;;;5075456;28;19963;-42
2022/06/18 05:15:31;;;;;;;;;;;;;;;;;;5075452;28;20263;-42
2022/06/18 05:17:57;;;;;;;;;;;;;;;;;;5074167;28;19917;-42
2022/06/18 05:20:22;;;;;;;;;;;;;;;;;;5075599;28;19908;-42
2022/06/18 05:22:47;;;;;;;;;;;;;;;;;;5075533;28;19991;-42
2022/06/18 05:25:12;;;;;;;;;;;;;;;;;;5075684;28;20313;-42
2022/06/18 05:27:37;;;;;;;;;;;;;;;;;;5075566;28;20275;-42
2022/06/18 05:30:03;;;;;;;;;;;;;;;;;;5075084;28;20267;-42
2022/06/18 05:32:29;;;;;;;;;;;;;;;;;;5075160;28;19954;-42
2022/06/18 05:34:54;;;;;;;;;;;;;;;;;;5075010;28;20339;-41
2022/06/18 05:37:19;;;;;;;;;;;;;;;;;;5075046;28;20371;-42
2022/06/18 05:39:44;;;;;;;;;;;;;;;;;;5075334;28;19908;-42
2022/06/18 05:42:09;;;;;;;;;;;;;;;;;;5075147;28;20274;-42
2022/06/18 05:44:34;;;;;;;;;;;;;;;;;;5075114;28;20375;-42
2022/06/18 05:47:00;;;;;;;;;;;;;;;;;;5074917;28;20432;-41
2022/06/18 05:49:25;;;;;;;;;;;;;;;;;;5075085;28;19915;-41
2022/06/18 05:51:50;;;;;;;;;;;;;;;;;;5075281;28;20254;-41
2022/06/18 05:54:15;;;;;;;;;;;;;;;;;;5074216;28;20351;-42
2022/06/18 05:56:41;;;;;;;;;;;;;;;;;;5074908;28;19908;-41
2022/06/18 05:59:06;;;;;;;;;;;;;;;;;;5075129;28;20410;-42
2022/06/18 06:01:31;;;;;;;;;;;;;;;;;;5075116;28;20308;-41
2022/06/18 06:03:56;;;;;;;;;;;;;;;;;;5075077;28;19908;-41
2022/06/18 06:06:22;;;;;;;;;;;;;;;;;;5075471;28;20253;-41
2022/06/18 06:08:48;;;;;;;;;;;;;;;;;;5075049;28;20271;-42
2022/06/18 06:11:32;;;;;;;;;;;;;;;;;;5075262;28;19916;-42
2022/06/18 06:13:57;;;;;;;;;;;;;;;;;;5073546;28;19913;-41
2022/06/18 06:16:22;;;;;;;;;;;;;;;;;;5077293;28;19916;-42
2022/06/18 06:18:48;;;;;;;;;;;;;;;;;;5078766;28;19915;-41
2022/06/18 06:21:13;;;;;;;;;;;;;;;;;;5078950;28;19955;-41
2022/06/18 06:23:38;;;;;;;;;;;;;;;;;;5078758;28;19917;-41
2022/06/18 06:26:03;;;;;;;;;;;;;;;;;;5078775;28;19940;-41
2022/06/18 06:28:28;;;;;;;;;;;;;;;;;;5078775;28;19909;-41
2022/06/18 06:30:53;;;;;;;;;;;;;;;;;;5078314;28;19908;-41
2022/06/18 06:33:19;;;;;;;;;;;;;;;;;;5078585;28;19931;-41
2022/06/18 06:35:44;;;;;;;;;;;;;;;;;;5078352;28;19956;-42
2022/06/18 06:38:09;;;;;;;;;;;;;;;;;;5078842;28;19916;-42
2022/06/18 06:40:34;;;;;;;;;;;;;;;;;;5078764;28;20245;-42
2022/06/18 06:42:59;;;;;;;;;;;;;;;;;;5078675;28;19920;-41
2022/06/18 06:45:25;;;;;;;;;;;;;;;;;;5078395;28;19944;-42
2022/06/18 06:47:50;;;;;;;;;;;;;;;;;;5078538;28;19909;-41
2022/06/18 06:50:16;;;;;;;;;;;;;;;;;;5078494;28;20012;-42
2022/06/18 06:52:41;;;;;;;;;;;;;;;;;;5078164;28;19909;-41
2022/06/18 06:57:50;;;;;;;;;;;;;;;;;;5078160;28;19915;-42
2022/06/18 07:00:15;;;;;;;;;;;;;;;;;;5078168;28;19908;-41
2022/06/18 07:02:40;;;;;;;;;;;;;;;;;;5078123;28;20371;-41
2022/06/18 07:05:05;;;;;;;;;;;;;;;;;;5077780;28;19999;-42
2022/06/18 07:07:30;;;;;;;;;;;;;;;;;;5077831;28;19909;-42
2022/06/18 07:09:55;;;;;;;;;;;;;;;;;;5077945;28;20007;-44
2022/06/18 07:12:21;;;;;;;;;;;;;;;;;;5077813;28;19913;-42
2022/06/18 07:14:46;;;;;;;;;;;;;;;;;;5077502;28;19917;-43
2022/06/18 07:17:11;;;;;;;;;;;;;;;;;;5078397;28;20358;-42
2022/06/18 07:19:36;;;;;;;;;;;;;;;;;;5077822;28;20270;-41
2022/06/18 07:22:02;;;;;;;;;;;;;;;;;;5077487;28;19908;-42
2022/06/18 07:24:27;;;;;;;;;;;;;;;;;;5077767;28;19908;-42
2022/06/18 07:26:52;;;;;;;;;;;;;;;;;;5077515;28;20373;-42
2022/06/18 07:29:20;;;;;;;;;;;;;;;;;;5077864;28;20011;-41
2022/06/18 07:31:45;;;;;;;;;;;;;;;;;;5077661;28;19954;-42
2022/06/18 07:34:11;;;;;;;;;;;;;;;;;;5077120;28;19968;-42
2022/06/18 07:36:36;;;;;;;;;;;;;;;;;;5077928;28;20375;-42
2022/06/18 07:39:01;;;;;;;;;;;;;;;;;;5077274;28;19947;-42
2022/06/18 07:41:26;;;;;;;;;;;;;;;;;;5077463;28;19908;-42
2022/06/18 07:43:53;;;;;;;;;;;;;;;;;;5077486;28;19904;-43
2022/06/18 07:46:19;;;;;;;;;;;;;;;;;;5077153;28;20267;-42
2022/06/18 07:48:44;;;;;;;;;;;;;;;;;;5077006;28;19912;-42
2022/06/18 07:51:09;;;;;;;;;;;;;;;;;;5077068;28;19970;-42
2022/06/18 07:53:34;;;;;;;;;;;;;;;;;;5076903;28;19911;-42
2022/06/18 07:55:59;;;;;;;;;;;;;;;;;;5076848;28;19919;-42
2022/06/18 07:58:26;;;;;;;;;;;;;;;;;;5076776;28;19991;-42
2022/06/18 08:00:54;;;;;;;;;;;;;;;;;;5076825;28;20357;-42
2022/06/18 08:03:19;;;;;;;;;;;;;;;;;;5076640;28;19909;-42
2022/06/18 08:05:44;;;;;;;;;;;;;;;;;;5076656;28;19971;-42
2022/06/18 08:08:09;;;;;;;;;;;;;;;;;;5076604;28;19916;-42
2022/06/18 08:10:34;;;;;;;;;;;;;;;;;;5076590;28;20359;-42
2022/06/18 08:12:59;;;;;;;;;;;;;;;;;;5075175;28;19908;-42
2022/06/18 08:15:25;;;;;;;;;;;;;;;;;;5076302;28;19919;-42
2022/06/18 08:17:50;;;;;;;;;;;;;;;;;;5076550;28;19915;-42
2022/06/18 08:20:15;;;;;;;;;;;;;;;;;;5076396;28;19908;-43
2022/06/18 08:22:40;;;;;;;;;;;;;;;;;;5087670;28;19912;-42
2022/06/18 08:25:05;;;;;;;;;;;;;;;;;;5096624;28;20369;-42
2022/06/18 08:27:31;;;;;;;;;;;;;;;;;;5096680;28;20401;-42
2022/06/18 08:29:56;;;;;;;;;;;;;;;;;;5096489;28;19905;-42
2022/06/18 08:32:21;;;;;;;;;;;;;;;;;;5096147;28;19912;-42
2022/06/18 08:34:46;;;;;;;;;;;;;;;;;;5096073;28;19959;-44
2022/06/18 08:37:11;;;;;;;;;;;;;;;;;;5096377;28;19912;-41
2022/06/18 08:39:36;;;;;;;;;;;;;;;;;;5095755;28;19908;-42
2022/06/18 08:42:02;;;;;;;;;;;;;;;;;;5096140;28;19954;-42
2022/06/18 08:44:27;;;;;;;;;;;;;;;;;;5096002;28;19915;-42
2022/06/18 08:46:53;;;;;;;;;;;;;;;;;;5096086;28;19912;-43
2022/06/18 08:49:18;;;;;;;;;;;;;;;;;;5096070;28;19912;-41
2022/06/18 08:51:43;;;;;;;;;;;;;;;;;;5095877;28;20290;-43
2022/06/18 08:54:08;;;;;;;;;;;;;;;;;;5095905;28;19912;-43
2022/06/18 08:56:33;;;;;;;;;;;;;;;;;;5096173;28;19959;-43
2022/06/18 08:58:58;;;;;;;;;;;;;;;;;;5095789;28;19931;-43
2022/06/18 09:01:24;;;;;;;;;;;;;;;;;;5095739;28;19908;-42
2022/06/18 09:03:49;;;;;;;;;;;;;;;;;;5095402;28;20251;-42
2022/06/18 09:06:14;;;;;;;;;;;;;;;;;;5095698;28;19912;-42
2022/06/18 09:08:39;;;;;;;;;;;;;;;;;;5095497;28;19941;-42
2022/06/18 09:11:04;;;;;;;;;;;;;;;;;;5095712;28;20397;-43
2022/06/18 09:13:29;;;;;;;;;;;;;;;;;;5095540;28;20436;-43
2022/06/18 09:15:54;;;;;;;;;;;;;;;;;;5095385;28;20305;-42
2022/06/18 09:18:19;;;;;;;;;;;;;;;;;;5095515;28;19914;-43
2022/06/18 09:20:44;;;;;;;;;;;;;;;;;;5095385;28;20251;-43
2022/06/18 09:23:10;;;;;;;;;;;;;;;;;;5095248;28;20278;-43
2022/06/18 09:25:35;;;;;;;;;;;;;;;;;;5095468;28;20002;-47
2022/06/18 09:28:00;;;;;;;;;;;;;;;;;;5095256;28;19908;-42
2022/06/18 09:30:25;;;;;;;;;;;;;;;;;;5095016;28;19908;-42
2022/06/18 09:32:50;;;;;;;;;;;;;;;;;;5094876;28;19963;-43
2022/06/18 09:35:15;;;;;;;;;;;;;;;;;;5095081;28;19912;-43
2022/06/18 09:37:41;;;;;;;;;;;;;;;;;;5095066;28;20428;-43
2022/06/18 09:40:06;;;;;;;;;;;;;;;;;;5095122;28;19981;-43
2022/06/18 09:42:31;;;;;;;;;;;;;;;;;;5095149;28;19922;-42
2022/06/18 09:44:56;;;;;;;;;;;;;;;;;;5095031;28;19920;-42
2022/06/18 09:47:21;;;;;;;;;;;;;;;;;;5094940;28;20374;-43
2022/06/18 09:49:46;;;;;;;;;;;;;;;;;;5093960;28;19915;-43
2022/06/18 09:52:11;;;;;;;;;;;;;;;;;;5095074;28;19922;-43
2022/06/18 09:54:36;;;;;;;;;;;;;;;;;;5095020;28;19948;-44
2022/06/18 09:57:02;;;;;;;;;;;;;;;;;;5094931;28;20000;-43
2022/06/18 09:59:28;;;;;;;;;;;;;;;;;;5094942;28;19961;-43
2022/06/18 10:01:55;;;;;;;;;;;;;;;;;;5094746;28;19954;-43
2022/06/18 10:07:04;;;;;;;;;;;;;;;;;;5094649;28;19955;-43
2022/06/18 10:09:29;;;;;;;;;;;;;;;;;;5094634;28;20290;-43
2022/06/18 10:11:55;;;;;;;;;;;;;;;;;;5094681;28;19908;-43
2022/06/18 10:14:20;;;;;;;;;;;;;;;;;;5094340;28;20007;-43
2022/06/18 10:16:45;;;;;;;;;;;;;;;;;;5094796;28;19908;-44
2022/06/18 10:19:10;;;;;;;;;;;;;;;;;;5094948;28;19908;-43
2022/06/18 10:21:35;;;;;;;;;;;;;;;;;;5094440;28;19908;-43
2022/06/18 10:24:00;;;;;;;;;;;;;;;;;;5094406;28;20404;-43
2022/06/18 10:26:25;;;;;;;;;;;;;;;;;;5094485;28;19915;-43
2022/06/18 10:28:50;;;;;;;;;;;;;;;;;;5094336;28;19911;-43
2022/06/18 10:31:16;;;;;;;;;;;;;;;;;;5094546;28;20404;-42
2022/06/18 10:33:42;;;;;;;;;;;;;;;;;;5094118;28;19920;-43
2022/06/18 10:36:07;;;;;;;;;;;;;;;;;;5094410;28;19920;-43
2022/06/18 10:38:32;;;;;;;;;;;;;;;;;;5094323;28;19916;-43
2022/06/18 10:40:57;;;;;;;;;;;;;;;;;;5094336;28;19918;-43
2022/06/18 10:43:23;;;;;;;;;;;;;;;;;;5094473;28;19918;-42
2022/06/18 10:45:48;;;;;;;;;;;;;;;;;;5094250;28;19908;-43
2022/06/18 10:48:13;;;;;;;;;;;;;;;;;;5094258;28;19908;-42
2022/06/18 10:50:38;;;;;;;;;;;;;;;;;;5094268;28;19909;-43
2022/06/18 10:53:04;;;;;;;;;;;;;;;;;;5092991;28;19920;-43
2022/06/18 10:55:29;;;;;;;;;;;;;;;;;;5094175;28;19955;-45
2022/06/18 10:57:54;;;;;;;;;;;;;;;;;;5094149;28;19908;-43
2022/06/18 11:00:19;;;;;;;;;;;;;;;;;;5094195;28;19930;-43
2022/06/18 11:02:45;;;;;;;;;;;;;;;;;;5097147;28;19908;-43
2022/06/18 11:05:10;;;;;;;;;;;;;;;;;;5097983;28;19954;-43
2022/06/18 11:07:35;;;;;;;;;;;;;;;;;;5097860;28;19908;-42
2022/06/18 11:10:00;;;;;;;;;;;;;;;;;;5097728;28;19908;-43
2022/06/18 11:12:27;;;;;;;;;;;;;;;;;;5097641;28;19908;-43
2022/06/18 11:14:52;;;;;;;;;;;;;;;;;;5095465;28;19925;-42
2022/06/18 11:17:17;;;;;;;;;;;;;;;;;;5084202;28;20251;-44
2022/06/18 11:19:48;;;;;;;;;;;;;;;;;;5097492;28;19909;-42
2022/06/18 11:22:13;;;;;;;;;;;;;;;;;;5097850;28;20306;-43
2022/06/18 11:24:38;;;;;;;;;;;;;;;;;;5097427;28;19981;-43
2022/06/18 11:27:04;;;;;;;;;;;;;;;;;;5097565;28;19942;-44
2022/06/18 11:29:29;;;;;;;;;;;;;;;;;;5095815;28;19954;-43
2022/06/18 11:31:54;;;;;;;;;;;;;;;;;;5086927;28;19908;-44
2022/06/18 11:34:19;;;;;;;;;;;;;;;;;;5083629;23;19925;-44
2022/06/18 11:36:44;;;;;;;;;;;;;;;;;;5076957;28;19948;-43
2022/06/18 11:39:09;;;;;;;;;;;;;;;;;;5077079;28;20003;-43
2022/06/18 11:41:34;;;;;;;;;;;;;;;;;;5076981;28;19909;-44
2022/06/18 11:43:59;;;;;;;;;;;;;;;;;;5076657;28;19913;-44
2022/06/18 11:46:25;;;;;;;;;;;;;;;;;;5076826;28;19915;-44
2022/06/18 11:48:50;;;;;;;;;;;;;;;;;;5075422;28;19935;-44
2022/06/18 11:51:15;;;;;;;;;;;;;;;;;;5076672;28;20359;-43
2022/06/18 11:53:40;;;;;;;;;;;;;;;;;;5076710;28;20382;-43
2022/06/18 11:56:05;;;;;;;;;;;;;;;;;;5076545;28;20290;-44
2022/06/18 11:58:30;;;;;;;;;;;;;;;;;;5076616;28;19909;-44
2022/06/18 12:00:55;;;;;;;;;;;;;;;;;;5076535;28;19952;-45
2022/06/18 12:03:21;;;;;;;;;;;;;;;;;;5076487;28;19908;-44
2022/06/18 12:05:46;;;;;;;;;;;;;;;;;;5075232;28;19908;-45
2022/06/18 12:08:11;;;;;;;;;;;;;;;;;;5076540;28;19962;-44
2022/06/18 12:10:36;;;;;;;;;;;;;;;;;;5076401;28;19913;-43
2022/06/18 12:13:01;;;;;;;;;;;;;;;;;;5075234;28;19988;-42
2022/06/18 12:15:27;;;;;;;;;;;;;;;;;;5076163;28;19920;-42
2022/06/18 12:17:52;;;;;;;;;;;;;;;;;;5075844;28;19909;-44
2022/06/18 12:20:18;;;;;;;;;;;;;;;;;;5076111;28;19965;-43
2022/06/18 12:22:43;;;;;;;;;;;;;;;;;;5076032;28;19917;-44
2022/06/18 12:25:08;;;;;;;;;;;;;;;;;;5076083;28;19908;-44
2022/06/18 12:27:35;;;;;;;;;;;;;;;;;;5076157;28;19908;-45
2022/06/18 12:30:00;;;;;;;;;;;;;;;;;;5075957;28;19909;-43
2022/06/18 12:32:25;;;;;;;;;;;;;;;;;;5075836;28;19966;-43
2022/06/18 12:34:50;;;;;;;;;;;;;;;;;;5075700;28;20385;-43
2022/06/18 12:37:15;;;;;;;;;;;;;;;;;;5075955;28;19909;-44
2022/06/18 12:39:40;;;;;;;;;;;;;;;;;;5075925;28;20264;-44
2022/06/18 12:42:05;;;;;;;;;;;;;;;;;;5075725;28;19915;-43
2022/06/18 12:44:30;;;;;;;;;;;;;;;;;;5075666;28;19908;-43
2022/06/18 12:46:55;;;;;;;;;;;;;;;;;;5075666;28;19908;-42
2022/06/18 12:49:21;;;;;;;;;;;;;;;;;;5075450;28;19909;-43
2022/06/18 12:51:46;;;;;;;;;;;;;;;;;;5075691;28;19962;-43
2022/06/18 12:54:11;;;;;;;;;;;;;;;;;;5074568;28;19966;-43
2022/06/18 12:56:36;;;;;;;;;;;;;;;;;;5075622;28;19912;-44
2022/06/18 12:59:01;;;;;;;;;;;;;;;;;;5075366;28;19916;-43
2022/06/18 13:01:28;;;;;;;;;;;;;;;;;;5075496;28;20424;-43
2022/06/18 13:03:53;;;;;;;;;;;;;;;;;;5075369;28;19915;-44
2022/06/18 13:06:18;;;;;;;;;;;;;;;;;;5075379;28;19987;-43
2022/06/18 13:08:43;;;;;;;;;;;;;;;;;;5075587;28;20338;-45
2022/06/18 13:11:08;;;;;;;;;;;;;;;;;;5075146;28;19908;-44
2022/06/18 13:13:34;;;;;;;;;;;;;;;;;;5074956;28;19954;-43
2022/06/18 13:15:59;;;;;;;;;;;;;;;;;;5074741;28;20426;-44
2022/06/18 13:18:24;;;;;;;;;;;;;;;;;;5075122;28;19908;-43
2022/06/18 13:20:49;;;;;;;;;;;;;;;;;;5074906;28;19913;-43
2022/06/18 13:28:42;;;;;;;;;;;;;;;;;;5074914;28;19978;-43
2022/06/18 13:31:07;;;;;;;;;;;;;;;;;;5074778;28;19908;-45
2022/06/18 13:33:32;;;;;;;;;;;;;;;;;;5074551;28;19920;-44
2022/06/18 13:35:57;;;;;;;;;;;;;;;;;;5071550;28;20013;-44
2022/06/18 13:38:23;;;;;;;;;;;;;;;;;;5073663;28;20003;-43
2022/06/18 13:40:48;;;;;;;;;;;;;;;;;;5073832;28;19912;-45
2022/06/18 13:43:13;;;;;;;;;;;;;;;;;;5073054;28;19912;-43
2022/06/18 13:45:38;;;;;;;;;;;;;;;;;;5074718;28;20317;-43
2022/06/18 13:48:03;;;;;;;;;;;;;;;;;;5074569;28;19912;-44
2022/06/18 13:50:28;;;;;;;;;;;;;;;;;;5074265;28;19916;-43
2022/06/18 13:52:53;;;;;;;;;;;;;;;;;;5074569;28;19913;-42
2022/06/18 13:55:18;;;;;;;;;;;;;;;;;;5074446;28;19920;-43
2022/06/18 13:57:45;;;;;;;;;;;;;;;;;;5074564;28;19915;-44
2022/06/18 14:00:10;;;;;;;;;;;;;;;;;;5074515;28;19913;-44
2022/06/18 14:02:35;;;;;;;;;;;;;;;;;;5074605;28;20385;-43
2022/06/18 14:05:00;;;;;;;;;;;;;;;;;;5074549;28;19908;-43
2022/06/18 14:07:25;;;;;;;;;;;;;;;;;;5074482;28;19909;-44
2022/06/18 14:09:51;;;;;;;;;;;;;;;;;;5074338;28;19948;-44
2022/06/18 14:12:17;;;;;;;;;;;;;;;;;;5074449;28;19912;-43
2022/06/18 14:14:42;;;;;;;;;;;;;;;;;;5074325;28;19919;-42
2022/06/18 14:17:07;;;;;;;;;;;;;;;;;;5074263;28;19908;-43
2022/06/18 14:19:32;;;;;;;;;;;;;;;;;;5074249;28;19904;-45
2022/06/18 14:21:57;;;;;;;;;;;;;;;;;;5074255;28;19912;-43
2022/06/18 14:24:22;;;;;;;;;;;;;;;;;;5074209;28;19909;-44
2022/06/18 14:26:48;;;;;;;;;;;;;;;;;;5074235;28;19908;-44
2022/06/18 14:29:13;;;;;;;;;;;;;;;;;;5074401;28;19908;-43
2022/06/18 14:31:38;;;;;;;;;;;;;;;;;;5074166;28;19995;-44
2022/06/18 14:34:03;;;;;;;;;;;;;;;;;;5073981;28;19927;-43
2022/06/18 14:36:28;;;;;;;;;;;;;;;;;;5075062;28;19916;-43
2022/06/18 14:38:54;;;;;;;;;;;;;;;;;;5078102;28;19919;-43
2022/06/18 14:41:37;;;;;;;;;;;;;;;;;;5078060;28;19914;-47
2022/06/18 14:44:02;;;;;;;;;;;;;;;;;;5078097;28;19908;-44
2022/06/18 14:46:27;;;;;;;;;;;;;;;;;;5077923;28;19916;-43
2022/06/18 14:48:52;;;;;;;;;;;;;;;;;;5077958;28;19935;-42
2022/06/18 14:51:17;;;;;;;;;;;;;;;;;;5077792;28;19969;-45
2022/06/18 14:53:42;;;;;;;;;;;;;;;;;;5077793;28;19961;-44
2022/06/18 14:56:08;;;;;;;;;;;;;;;;;;5077814;28;19965;-43
2022/06/18 14:58:33;;;;;;;;;;;;;;;;;;5076772;28;19919;-44
2022/06/18 15:00:58;;;;;;;;;;;;;;;;;;5077809;28;19908;-43
2022/06/18 15:03:23;;;;;;;;;;;;;;;;;;5078060;28;19947;-44
2022/06/18 15:05:48;;;;;;;;;;;;;;;;;;5077668;28;19932;-42
2022/06/18 15:08:13;;;;;;;;;;;;;;;;;;5077571;28;19920;-43
2022/06/18 15:10:39;;;;;;;;;;;;;;;;;;5077598;28;19927;-43
2022/06/18 15:13:04;;;;;;;;;;;;;;;;;;5077398;28;19908;-44
2022/06/18 15:15:43;;;;;;;;;;;;;;;;;;5077373;28;19912;-43
2022/06/18 15:18:33;;;;;;;;;;;;;;;;;;5077262;28;19908;-43
2022/06/18 15:21:05;;;;;;;;;;;;;;;;;;5077310;28;19904;-43
2022/06/18 15:25:59;;;;;;;;;;;;;;;;;;5077236;28;20279;-44
2022/06/18 15:28:24;;;;;;;;;;;;;;;;;;5077217;28;19909;-43
2022/06/18 15:30:49;;;;;;;;;;;;;;;;;;5077067;28;19913;-44
2022/06/18 15:33:14;;;;;;;;;;;;;;;;;;5076901;28;20355;-43
2022/06/18 15:35:39;;;;;;;;;;;;;;;;;;5076898;28;19927;-43
2022/06/18 15:38:04;;;;;;;;;;;;;;;;;;5077274;28;19962;-43
2022/06/18 15:40:29;;;;;;;;;;;;;;;;;;5077026;28;19909;-45
2022/06/18 15:42:54;;;;;;;;;;;;;;;;;;5076992;28;19908;-43
2022/06/18 15:45:20;;;;;;;;;;;;;;;;;;5077008;28;19908;-45
2022/06/18 15:47:45;;;;;;;;;;;;;;;;;;5076847;28;19908;-43
2022/06/18 15:50:10;;;;;;;;;;;;;;;;;;5076774;28;19908;-43
2022/06/18 15:52:35;;;;;;;;;;;;;;;;;;5076929;28;19962;-43
2022/06/18 15:55:00;;;;;;;;;;;;;;;;;;5076605;28;19990;-45
2022/06/18 15:57:27;;;;;;;;;;;;;;;;;;5076644;28;19999;-44
2022/06/18 15:59:52;;;;;;;;;;;;;;;;;;5076606;28;19908;-46
2022/06/18 16:02:17;;;;;;;;;;;;;;;;;;5075341;28;19920;-43
2022/06/18 16:04:42;;;;;;;;;;;;;;;;;;5076690;28;19908;-44
2022/06/18 16:07:07;;;;;;;;;;;;;;;;;;5076420;28;19915;-43
2022/06/18 16:09:44;;;;;;;;;;;;;;;;;;5076589;28;19915;-43
2022/06/18 16:12:09;;;;;;;;;;;;;;;;;;5076408;28;19960;-43
2022/06/18 16:14:34;;;;;;;;;;;;;;;;;;5076226;28;19958;-44
2022/06/18 16:17:00;;;;;;;;;;;;;;;;;;5076307;28;19912;-43
2022/06/18 16:19:25;;;;;;;;;;;;;;;;;;5076073;28;19905;-43
2022/06/18 16:21:50;;;;;;;;;;;;;;;;;;5076323;28;19909;-44
2022/06/18 16:24:15;;;;;;;;;;;;;;;;;;5075815;28;19913;-45
2022/06/18 16:26:40;;;;;;;;;;;;;;;;;;5076421;28;19908;-43
2022/06/18 16:29:06;;;;;;;;;;;;;;;;;;5076687;28;19915;-45
2022/06/18 16:31:31;;;;;;;;;;;;;;;;;;5076573;28;19909;-44
2022/06/18 16:33:56;;;;;;;;;;;;;;;;;;5075615;28;19921;-44
2022/06/18 16:36:23;;;;;;;;;;;;;;;;;;5076192;28;19923;-43
2022/06/18 16:38:49;;;;;;;;;;;;;;;;;;5074934;28;20340;-43
2022/06/18 16:41:14;;;;;;;;;;;;;;;;;;5075470;28;19920;-44
2022/06/18 16:43:39;;;;;;;;;;;;;;;;;;5075126;28;20351;-45
2022/06/18 16:46:05;;;;;;;;;;;;;;;;;;5075191;28;19912;-44
2022/06/18 16:48:33;;;;;;;;;;;;;;;;;;5074956;28;19916;-43
2022/06/18 16:50:58;;;;;;;;;;;;;;;;;;5075189;28;19955;-43